AXM1782 WIOO-WBGG
Flight info
| Callsign | AXM1782 |
|---|---|
| Flight time | 0h 29m |
| Altitude | 20000 |
| Route | PAPS1D PAPSA PAPS1A |
| Aircraft | A320/L-V/N |
Departure
| Time | 2026-05-07 04:04 |
|---|---|
| Airport | Supadio International Airport (WIOO) |
Arrival
| Time | 2026-05-07 04:33 |
|---|---|
| Airport | Kuching International Airport (WBGG) |
| Time | Latitude | Longitude | Altitude | Speed | Heading |
|---|---|---|---|---|---|
| 2026-05-07 03:55 | -0.14708 | 109.40385 | 12 ft | 0 kts | 69° |
| 2026-05-07 03:56 | -0.14712 | 109.40372 | 12 ft | 2 kts | 73° |
| 2026-05-07 03:56 | -0.14715 | 109.40363 | 12 ft | 0 kts | 70° |
| 2026-05-07 03:56 | -0.14721 | 109.40354 | 12 ft | 1 kts | 18° |
| 2026-05-07 03:56 | -0.14729 | 109.40354 | 12 ft | 1 kts | 335° |
| 2026-05-07 03:57 | -0.14735 | 109.40357 | 12 ft | 0 kts | 338° |
| 2026-05-07 03:58 | -0.14719 | 109.40351 | 12 ft | 4 kts | 340° |
| 2026-05-07 03:59 | -0.14681 | 109.40337 | 12 ft | 7 kts | 340° |
| 2026-05-07 03:59 | -0.14620 | 109.40314 | 11 ft | 11 kts | 337° |
| 2026-05-07 03:59 | -0.14538 | 109.40279 | 11 ft | 13 kts | 338° |
| 2026-05-07 03:59 | -0.14459 | 109.40247 | 10 ft | 13 kts | 338° |
| 2026-05-07 04:00 | -0.14438 | 109.40238 | 10 ft | 12 kts | 327° |
| 2026-05-07 04:00 | -0.14431 | 109.40155 | 9 ft | 11 kts | 268° |
| 2026-05-07 04:00 | -0.14372 | 109.40105 | 9 ft | 11 kts | 338° |
| 2026-05-07 04:01 | -0.14297 | 109.40075 | 9 ft | 11 kts | 337° |
| 2026-05-07 04:01 | -0.14232 | 109.40028 | 9 ft | 11 kts | 301° |
| 2026-05-07 04:01 | -0.14170 | 109.39995 | 9 ft | 10 kts | 35° |
| 2026-05-07 04:01 | -0.14196 | 109.40033 | 9 ft | 3 kts | 157° |
| 2026-05-07 04:02 | -0.14200 | 109.40035 | 9 ft | 1 kts | 157° |
| 2026-05-07 04:02 | -0.14213 | 109.40040 | 9 ft | 2 kts | 157° |
| 2026-05-07 04:02 | -0.14216 | 109.40041 | 9 ft | 0 kts | 157° |
| 2026-05-07 04:03 | -0.14222 | 109.40044 | 9 ft | 4 kts | 157° |
| 2026-05-07 04:03 | -0.14435 | 109.40131 | 9 ft | 71 kts | 156° |
| 2026-05-07 04:03 | -0.15119 | 109.40410 | 12 ft | 136 kts | 158° |
| 2026-05-07 04:03 | -0.16065 | 109.40788 | 447 ft | 144 kts | 157° |
| 2026-05-07 04:04 | -0.16925 | 109.41166 | 919 ft | 146 kts | 150° |
| 2026-05-07 04:04 | -0.17730 | 109.41695 | 1436 ft | 148 kts | 138° |
| 2026-05-07 04:04 | -0.18331 | 109.42578 | 1933 ft | 149 kts | 94° |
| 2026-05-07 04:04 | -0.17955 | 109.43561 | 2207 ft | 163 kts | 43° |
| 2026-05-07 04:05 | -0.16951 | 109.44224 | 2529 ft | 180 kts | 33° |
| 2026-05-07 04:05 | -0.15845 | 109.44953 | 2905 ft | 197 kts | 35° |
| 2026-05-07 04:05 | -0.14659 | 109.45770 | 3227 ft | 220 kts | 35° |
| 2026-05-07 04:05 | -0.13336 | 109.46693 | 3672 ft | 238 kts | 36° |
| 2026-05-07 04:06 | -0.11919 | 109.47691 | 4157 ft | 256 kts | 36° |
| 2026-05-07 04:06 | -0.10443 | 109.48733 | 4758 ft | 268 kts | 36° |
| 2026-05-07 04:06 | -0.08898 | 109.49826 | 5597 ft | 271 kts | 35° |
| 2026-05-07 04:06 | -0.07363 | 109.50913 | 6437 ft | 274 kts | 35° |
| 2026-05-07 04:07 | -0.05811 | 109.52013 | 7235 ft | 278 kts | 35° |
| 2026-05-07 04:07 | -0.04264 | 109.53110 | 8004 ft | 281 kts | 36° |
| 2026-05-07 04:07 | -0.02665 | 109.54245 | 8764 ft | 285 kts | 36° |
| 2026-05-07 04:07 | -0.01046 | 109.55394 | 9507 ft | 289 kts | 36° |
| 2026-05-07 04:08 | 0.00629 | 109.56583 | 10223 ft | 294 kts | 36° |
| 2026-05-07 04:08 | 0.02334 | 109.57793 | 10667 ft | 308 kts | 36° |
| 2026-05-07 04:08 | 0.04115 | 109.59058 | 11155 ft | 320 kts | 36° |
| 2026-05-07 04:08 | 0.05949 | 109.60360 | 11831 ft | 324 kts | 36° |
| 2026-05-07 04:09 | 0.07796 | 109.61670 | 12529 ft | 327 kts | 36° |
| 2026-05-07 04:09 | 0.09652 | 109.62988 | 13167 ft | 331 kts | 36° |
| 2026-05-07 04:09 | 0.11555 | 109.64334 | 13827 ft | 334 kts | 37° |
| 2026-05-07 04:09 | 0.13456 | 109.65678 | 14473 ft | 337 kts | 37° |
| 2026-05-07 04:10 | 0.15395 | 109.67061 | 15127 ft | 340 kts | 37° |
| 2026-05-07 04:10 | 0.17338 | 109.68449 | 15747 ft | 343 kts | 37° |
| 2026-05-07 04:10 | 0.19275 | 109.69831 | 16354 ft | 346 kts | 37° |
| 2026-05-07 04:10 | 0.21238 | 109.71229 | 16963 ft | 348 kts | 37° |
| 2026-05-07 04:11 | 0.23246 | 109.72657 | 17558 ft | 351 kts | 37° |
| 2026-05-07 04:11 | 0.25224 | 109.74065 | 18113 ft | 353 kts | 37° |
| 2026-05-07 04:11 | 0.27249 | 109.75505 | 18651 ft | 357 kts | 37° |
| 2026-05-07 04:11 | 0.29293 | 109.76958 | 19179 ft | 360 kts | 37° |
| 2026-05-07 04:12 | 0.31338 | 109.78410 | 19618 ft | 363 kts | 37° |
| 2026-05-07 04:12 | 0.33390 | 109.79867 | 19814 ft | 363 kts | 37° |
| 2026-05-07 04:12 | 0.35461 | 109.81337 | 19821 ft | 362 kts | 37° |
| 2026-05-07 04:12 | 0.37515 | 109.82796 | 19824 ft | 362 kts | 37° |
| 2026-05-07 04:13 | 0.39597 | 109.84274 | 19824 ft | 362 kts | 37° |
| 2026-05-07 04:13 | 0.41673 | 109.85748 | 19824 ft | 361 kts | 37° |
| 2026-05-07 04:13 | 0.43728 | 109.87209 | 19825 ft | 362 kts | 37° |
| 2026-05-07 04:13 | 0.45810 | 109.88688 | 19826 ft | 362 kts | 37° |
| 2026-05-07 04:14 | 0.47879 | 109.90158 | 19828 ft | 362 kts | 37° |
| 2026-05-07 04:14 | 0.49917 | 109.91607 | 19824 ft | 362 kts | 37° |
| 2026-05-07 04:14 | 0.52005 | 109.93090 | 19824 ft | 361 kts | 37° |
| 2026-05-07 04:14 | 0.54047 | 109.94541 | 19823 ft | 361 kts | 37° |
| 2026-05-07 04:15 | 0.56105 | 109.96004 | 19823 ft | 362 kts | 37° |
| 2026-05-07 04:15 | 0.58168 | 109.97469 | 19826 ft | 361 kts | 37° |
| 2026-05-07 04:15 | 0.60218 | 109.98926 | 19827 ft | 361 kts | 37° |
| 2026-05-07 04:15 | 0.62291 | 110.00399 | 19828 ft | 361 kts | 37° |
| 2026-05-07 04:16 | 0.64351 | 110.01863 | 19828 ft | 361 kts | 37° |
| 2026-05-07 04:16 | 0.66414 | 110.03327 | 19727 ft | 363 kts | 37° |
| 2026-05-07 04:16 | 0.68498 | 110.04810 | 19180 ft | 368 kts | 37° |
| 2026-05-07 04:16 | 0.70614 | 110.06313 | 18661 ft | 367 kts | 37° |
| 2026-05-07 04:17 | 0.72699 | 110.07796 | 18193 ft | 366 kts | 37° |
| 2026-05-07 04:17 | 0.74771 | 110.09268 | 17746 ft | 363 kts | 37° |
| 2026-05-07 04:17 | 0.76831 | 110.10733 | 17319 ft | 360 kts | 37° |
| 2026-05-07 04:17 | 0.78880 | 110.12189 | 16902 ft | 357 kts | 37° |
| 2026-05-07 04:18 | 0.80898 | 110.13623 | 16498 ft | 354 kts | 36° |
| 2026-05-07 04:18 | 0.82907 | 110.15050 | 16081 ft | 351 kts | 37° |
| 2026-05-07 04:18 | 0.84888 | 110.16457 | 15675 ft | 349 kts | 37° |
| 2026-05-07 04:18 | 0.86870 | 110.17866 | 15259 ft | 346 kts | 37° |
| 2026-05-07 04:19 | 0.88831 | 110.19260 | 14851 ft | 343 kts | 36° |
| 2026-05-07 04:19 | 0.90765 | 110.20632 | 14452 ft | 341 kts | 37° |
| 2026-05-07 04:19 | 0.92699 | 110.22006 | 14054 ft | 338 kts | 36° |
| 2026-05-07 04:19 | 0.94615 | 110.23368 | 13652 ft | 336 kts | 36° |
| 2026-05-07 04:20 | 0.96522 | 110.24723 | 13259 ft | 334 kts | 36° |
| 2026-05-07 04:20 | 0.98398 | 110.26056 | 12879 ft | 331 kts | 36° |
| 2026-05-07 04:20 | 1.00277 | 110.27392 | 12483 ft | 329 kts | 36° |
| 2026-05-07 04:21 | 1.04035 | 110.30066 | 11736 ft | 324 kts | 36° |
| 2026-05-07 04:21 | 1.05859 | 110.31361 | 11442 ft | 319 kts | 36° |
| 2026-05-07 04:21 | 1.07666 | 110.32642 | 11135 ft | 317 kts | 36° |
| 2026-05-07 04:21 | 1.09467 | 110.33919 | 10773 ft | 315 kts | 36° |
| 2026-05-07 04:22 | 1.11272 | 110.35198 | 10394 ft | 314 kts | 36° |
| 2026-05-07 04:22 | 1.13055 | 110.36457 | 10046 ft | 312 kts | 36° |
| 2026-05-07 04:22 | 1.14804 | 110.37693 | 9986 ft | 298 kts | 36° |
| 2026-05-07 04:22 | 1.16464 | 110.38869 | 9889 ft | 289 kts | 36° |
| 2026-05-07 04:23 | 1.18104 | 110.40033 | 9541 ft | 288 kts | 36° |
| 2026-05-07 04:23 | 1.19736 | 110.41193 | 9215 ft | 287 kts | 36° |
| 2026-05-07 04:23 | 1.21368 | 110.42351 | 8895 ft | 286 kts | 36° |
| 2026-05-07 04:23 | 1.22977 | 110.43494 | 8583 ft | 284 kts | 36° |
| 2026-05-07 04:24 | 1.24594 | 110.44645 | 8268 ft | 282 kts | 36° |
| 2026-05-07 04:24 | 1.26200 | 110.45786 | 7960 ft | 280 kts | 36° |
| 2026-05-07 04:24 | 1.27790 | 110.46917 | 7655 ft | 278 kts | 36° |
| 2026-05-07 04:24 | 1.29354 | 110.48029 | 7359 ft | 276 kts | 36° |
| 2026-05-07 04:25 | 1.30915 | 110.49141 | 7062 ft | 273 kts | 36° |
| 2026-05-07 04:25 | 1.32470 | 110.50248 | 6766 ft | 271 kts | 36° |
| 2026-05-07 04:25 | 1.34008 | 110.51344 | 6471 ft | 269 kts | 35° |
| 2026-05-07 04:25 | 1.35529 | 110.52427 | 6180 ft | 267 kts | 35° |
| 2026-05-07 04:26 | 1.37032 | 110.53495 | 5888 ft | 266 kts | 35° |
| 2026-05-07 04:26 | 1.38541 | 110.54569 | 5594 ft | 264 kts | 35° |
| 2026-05-07 04:26 | 1.40038 | 110.55632 | 5300 ft | 263 kts | 36° |
| 2026-05-07 04:26 | 1.41545 | 110.56698 | 4995 ft | 262 kts | 36° |
| 2026-05-07 04:27 | 1.43008 | 110.57738 | 4699 ft | 261 kts | 36° |
| 2026-05-07 04:27 | 1.44508 | 110.58781 | 4387 ft | 260 kts | 30° |
| 2026-05-07 04:27 | 1.46241 | 110.59302 | 4077 ft | 263 kts | 0° |
| 2026-05-07 04:27 | 1.48035 | 110.58917 | 3999 ft | 269 kts | 338° |
| 2026-05-07 04:28 | 1.49789 | 110.58190 | 3943 ft | 267 kts | 338° |
| 2026-05-07 04:28 | 1.51515 | 110.57480 | 3598 ft | 267 kts | 339° |
| 2026-05-07 04:28 | 1.53223 | 110.56792 | 3299 ft | 264 kts | 339° |
| 2026-05-07 04:28 | 1.54869 | 110.55968 | 3022 ft | 260 kts | 319° |
| 2026-05-07 04:29 | 1.55810 | 110.54507 | 2981 ft | 246 kts | 284° |
| 2026-05-07 04:29 | 1.55818 | 110.52877 | 2980 ft | 232 kts | 254° |
| 2026-05-07 04:29 | 1.55254 | 110.51361 | 2886 ft | 233 kts | 246° |
| 2026-05-07 04:29 | 1.54582 | 110.49887 | 2625 ft | 233 kts | 246° |
| 2026-05-07 04:30 | 1.53944 | 110.48408 | 2334 ft | 233 kts | 248° |
| 2026-05-07 04:30 | 1.53337 | 110.46902 | 2028 ft | 228 kts | 249° |
| 2026-05-07 04:30 | 1.52767 | 110.45451 | 1825 ft | 216 kts | 249° |
| 2026-05-07 04:30 | 1.52236 | 110.44105 | 1538 ft | 204 kts | 248° |
| 2026-05-07 04:31 | 1.51734 | 110.42839 | 1262 ft | 183 kts | 248° |
| 2026-05-07 04:31 | 1.51288 | 110.41715 | 1023 ft | 165 kts | 247° |
| 2026-05-07 04:31 | 1.50877 | 110.40677 | 800 ft | 152 kts | 247° |
| 2026-05-07 04:31 | 1.50490 | 110.39703 | 636 ft | 150 kts | 247° |
| 2026-05-07 04:32 | 1.50104 | 110.38731 | 454 ft | 149 kts | 248° |
| 2026-05-07 04:32 | 1.49730 | 110.37779 | 254 ft | 148 kts | 248° |
| 2026-05-07 04:32 | 1.49343 | 110.36819 | 83 ft | 147 kts | 247° |
| 2026-05-07 04:32 | 1.48988 | 110.35941 | 46 ft | 113 kts | 250° |
| 2026-05-07 04:33 | 1.48755 | 110.35345 | 75 ft | 79 kts | 248° |
| 2026-05-07 04:33 | 1.48589 | 110.34924 | 81 ft | 55 kts | 250° |
| 2026-05-07 04:33 | 1.48456 | 110.34587 | 87 ft | 49 kts | 248° |
| 2026-05-07 04:33 | 1.48363 | 110.34350 | 90 ft | 21 kts | 257° |
| 2026-05-07 04:34 | 1.48429 | 110.34281 | 89 ft | 15 kts | 338° |
| 2026-05-07 04:34 | 1.48531 | 110.34242 | 87 ft | 14 kts | 335° |
| 2026-05-07 04:34 | 1.48593 | 110.34187 | 87 ft | 8 kts | 336° |
| 2026-05-07 04:34 | 1.48627 | 110.34174 | 87 ft | 3 kts | 338° |
| 2026-05-07 04:35 | 1.48634 | 110.34172 | 87 ft | 0 kts | 337° |